Time;durP1;ratioP1;P1;durP2;ratioP2;P2;SDS_P1;SDS_P2;PMS_P1;PMS_P2;Temp;Humidity;BMP_temperature;BMP_pressure;BME280_temperature;BME280_humidity;BME280_pressure;Samples;Min_cycle;Max_cycle;Signal;HPM_P1;HPM_P2
2022/07/12 00:01:24;;;;;;;5.15;2.83;;;;;;;;;;5032412;28;20754;-71
2022/07/12 00:03:50;;;;;;;3.80;2.80;;;;;;;;;;5023772;28;20565;-71
2022/07/12 00:06:15;;;;;;;3.25;2.95;;;;;;;;;;5022757;28;20230;-71
2022/07/12 00:08:40;;;;;;;3.15;2.50;;;;;;;;;;5020050;28;20186;-71
2022/07/12 00:11:06;;;;;;;2.50;2.30;;;;;;;;;;5026099;28;20178;-71
2022/07/12 00:13:32;;;;;;;2.60;2.40;;;;;;;;;;5029420;28;20629;-71
2022/07/12 00:15:57;;;;;;;4.03;2.42;;;;;;;;;;5030249;28;20185;-71
2022/07/12 00:18:24;;;;;;;2.33;2.13;;;;;;;;;;5022550;28;20704;-71
2022/07/12 00:20:49;;;;;;;3.17;2.30;;;;;;;;;;5025080;28;20319;-71
2022/07/12 00:23:15;;;;;;;3.55;2.70;;;;;;;;;;5022699;28;20265;-72
2022/07/12 00:25:40;;;;;;;2.95;2.65;;;;;;;;;;5019730;28;20183;-72
2022/07/12 00:28:07;;;;;;;5.32;2.80;;;;;;;;;;5031070;28;20185;-72
2022/07/12 00:30:32;;;;;;;2.80;2.60;;;;;;;;;;5023904;28;20600;-72
2022/07/12 00:32:57;;;;;;;2.97;2.10;;;;;;;;;;5024235;28;20206;-71
2022/07/12 00:35:23;;;;;;;3.33;2.70;;;;;;;;;;5025474;28;20641;-71
2022/07/12 00:37:48;;;;;;;3.95;2.97;;;;;;;;;;5021919;28;20202;-72
2022/07/12 00:40:13;;;;;;;6.40;2.65;;;;;;;;;;5026735;28;20568;-72
2022/07/12 00:42:39;;;;;;;4.32;2.75;;;;;;;;;;5027517;28;20185;-72
2022/07/12 00:45:06;;;;;;;3.00;2.70;;;;;;;;;;5027307;28;20201;-72
2022/07/12 00:47:40;;;;;;;2.60;2.40;;;;;;;;;;5025323;28;20209;-71
2022/07/12 00:50:24;;;;;;;3.47;2.75;;;;;;;;;;5036793;28;20196;-71
2022/07/12 00:52:51;;;;;;;2.50;2.30;;;;;;;;;;5010584;28;20228;-71
2022/07/12 00:55:18;;;;;;;3.90;2.67;;;;;;;;;;5021585;28;20182;-71
2022/07/12 00:57:44;;;;;;;2.85;2.25;;;;;;;;;;5030720;28;20257;-71
2022/07/12 01:00:12;;;;;;;4.45;2.00;;;;;;;;;;5040341;28;20323;-72
2022/07/12 01:02:38;;;;;;;2.97;2.67;;;;;;;;;;5025883;28;20181;-71
2022/07/12 01:05:05;;;;;;;2.97;2.67;;;;;;;;;;5032320;28;20185;-71
2022/07/12 01:07:31;;;;;;;3.63;2.40;;;;;;;;;;5047356;28;20464;-71
2022/07/12 01:09:56;;;;;;;3.22;2.63;;;;;;;;;;5040831;28;20726;-71
2022/07/12 01:12:23;;;;;;;3.42;2.92;;;;;;;;;;5039438;28;20182;-71
2022/07/12 01:14:50;;;;;;;2.88;2.50;;;;;;;;;;5023729;28;20186;-71
2022/07/12 01:17:19;;;;;;;4.53;2.80;;;;;;;;;;5035756;28;20283;-72
2022/07/12 01:19:45;;;;;;;4.55;2.90;;;;;;;;;;5032215;28;20174;-71
2022/07/12 01:22:14;;;;;;;5.07;3.17;;;;;;;;;;5030515;28;20212;-72
2022/07/12 01:24:40;;;;;;;3.80;2.50;;;;;;;;;;5033406;28;20813;-71
2022/07/12 01:27:06;;;;;;;3.42;3.13;;;;;;;;;;5043631;28;20237;-71
2022/07/12 01:29:32;;;;;;;4.20;2.95;;;;;;;;;;5031653;28;20237;-71
2022/07/12 01:34:44;;;;;;;3.22;2.90;;;;;;;;;;5028680;28;20723;-71
2022/07/12 01:37:13;;;;;;;5.28;3.20;;;;;;;;;;5036816;28;20257;-71
2022/07/12 01:39:39;;;;;;;4.53;3.50;;;;;;;;;;5031847;28;20283;-71
2022/07/12 01:42:04;;;;;;;5.82;3.95;;;;;;;;;;5042422;28;20189;-71
2022/07/12 01:44:31;;;;;;;4.50;3.80;;;;;;;;;;5029125;28;20209;-71
2022/07/12 01:46:57;;;;;;;4.25;3.28;;;;;;;;;;5028720;28;20301;-71
2022/07/12 01:49:22;;;;;;;4.15;3.15;;;;;;;;;;5043866;28;20519;-71
2022/07/12 01:51:51;;;;;;;4.80;3.20;;;;;;;;;;5028297;28;20304;-72
2022/07/12 01:54:16;;;;;;;8.82;3.40;;;;;;;;;;5033847;28;20178;-71
2022/07/12 01:56:42;;;;;;;4.78;2.92;;;;;;;;;;5027695;28;20201;-71
2022/07/12 01:59:07;;;;;;;6.38;3.58;;;;;;;;;;5033638;28;20557;-72
2022/07/12 02:01:33;;;;;;;6.18;4.70;;;;;;;;;;5028470;28;20186;-70
2022/07/12 02:04:03;;;;;;;4.78;4.28;;;;;;;;;;5027509;28;20185;-71
2022/07/12 02:06:29;;;;;;;6.00;4.85;;;;;;;;;;5022498;28;20199;-72
2022/07/12 02:08:54;;;;;;;6.63;4.50;;;;;;;;;;5014147;28;20182;-71
2022/07/12 02:11:20;;;;;;;6.22;4.68;;;;;;;;;;5034083;28;20185;-72
2022/07/12 02:13:46;;;;;;;6.13;4.78;;;;;;;;;;5042687;28;20196;-71
2022/07/12 02:16:11;;;;;;;6.90;4.60;;;;;;;;;;5034850;28;20269;-71
2022/07/12 02:18:36;;;;;;;5.93;4.45;;;;;;;;;;5038474;28;20644;-72
2022/07/12 02:21:02;;;;;;;4.78;4.30;;;;;;;;;;5042438;28;20649;-70
2022/07/12 02:23:28;;;;;;;7.47;5.28;;;;;;;;;;5045719;28;20247;-70
2022/07/12 02:25:53;;;;;;;7.15;5.10;;;;;;;;;;5032095;28;20198;-71
2022/07/12 02:28:18;;;;;;;7.47;4.70;;;;;;;;;;5044094;28;20264;-71
2022/07/12 02:30:44;;;;;;;6.70;5.25;;;;;;;;;;5039088;28;20221;-71
2022/07/12 02:33:09;;;;;;;7.20;4.63;;;;;;;;;;5044582;28;20845;-71
2022/07/12 02:35:34;;;;;;;5.70;5.00;;;;;;;;;;5044748;28;20555;-71
2022/07/12 02:38:00;;;;;;;6.72;5.25;;;;;;;;;;5043350;28;20174;-71
2022/07/12 02:43:09;;;;;;;5.90;4.40;;;;;;;;;;5043675;28;20235;-72
2022/07/12 02:45:35;;;;;;;4.38;3.80;;;;;;;;;;5038445;28;20189;-72
2022/07/12 02:48:00;;;;;;;6.63;4.55;;;;;;;;;;5038938;28;20289;-72
2022/07/12 02:50:25;;;;;;;4.80;3.63;;;;;;;;;;5038905;28;20192;-72
2022/07/12 02:52:51;;;;;;;3.85;3.35;;;;;;;;;;5046416;28;20193;-72
2022/07/12 02:55:16;;;;;;;5.60;4.18;;;;;;;;;;5042820;28;20193;-72
2022/07/12 02:57:41;;;;;;;6.20;4.50;;;;;;;;;;5041873;28;20222;-72
2022/07/12 03:00:07;;;;;;;7.25;3.92;;;;;;;;;;5043665;28;20204;-72
2022/07/12 03:02:33;;;;;;;4.63;3.97;;;;;;;;;;5046331;28;20268;-72
2022/07/12 03:04:58;;;;;;;5.65;4.32;;;;;;;;;;5047360;28;20293;-72
2022/07/12 03:07:23;;;;;;;5.82;4.70;;;;;;;;;;5041834;28;20216;-72
2022/07/12 03:09:49;;;;;;;5.53;3.97;;;;;;;;;;5034899;28;20236;-72
2022/07/12 03:12:14;;;;;;;7.45;4.55;;;;;;;;;;5037440;28;20188;-71
2022/07/12 03:14:39;;;;;;;7.72;4.72;;;;;;;;;;5028343;28;20204;-72
2022/07/12 03:17:05;;;;;;;5.43;4.22;;;;;;;;;;5031159;28;20178;-72
2022/07/12 03:19:30;;;;;;;9.10;3.80;;;;;;;;;;5026673;28;20583;-72
2022/07/12 03:21:56;;;;;;;8.48;3.85;;;;;;;;;;5032647;28;20724;-72
2022/07/12 03:24:21;;;;;;;10.45;4.22;;;;;;;;;;5039031;28;20689;-71
2022/07/12 03:26:46;;;;;;;12.02;4.32;;;;;;;;;;5038312;28;20474;-71
2022/07/12 03:29:11;;;;;;;6.03;3.85;;;;;;;;;;5043433;28;20312;-73
2022/07/12 03:31:37;;;;;;;11.88;4.40;;;;;;;;;;5044168;28;20199;-71
2022/07/12 03:34:03;;;;;;;6.20;4.38;;;;;;;;;;5042626;28;21085;-72
2022/07/12 03:36:28;;;;;;;17.52;4.57;;;;;;;;;;5034383;28;20239;-72
2022/07/12 03:38:54;;;;;;;6.70;3.97;;;;;;;;;;5028417;28;20202;-72
2022/07/12 03:41:20;;;;;;;8.98;4.10;;;;;;;;;;5025834;28;20183;-72
2022/07/12 03:43:45;;;;;;;5.47;3.97;;;;;;;;;;5040313;28;20642;-71
2022/07/12 03:46:10;;;;;;;4.90;3.70;;;;;;;;;;5029934;28;20206;-71
2022/07/12 03:48:36;;;;;;;4.85;4.35;;;;;;;;;;5030734;28;20184;-72
2022/07/12 03:51:01;;;;;;;5.07;4.07;;;;;;;;;;5027756;28;20320;-71
2022/07/12 03:53:26;;;;;;;5.38;4.53;;;;;;;;;;5031818;28;20653;-71
2022/07/12 03:55:52;;;;;;;4.97;4.05;;;;;;;;;;5028878;28;20182;-72
2022/07/12 03:58:17;;;;;;;6.05;3.80;;;;;;;;;;5028065;28;20228;-72
2022/07/12 04:00:42;;;;;;;3.38;3.08;;;;;;;;;;5030397;28;20216;-72
2022/07/12 04:03:10;;;;;;;3.15;2.83;;;;;;;;;;5026825;28;20182;-72
2022/07/12 04:05:36;;;;;;;3.30;2.67;;;;;;;;;;5028208;28;20606;-72
2022/07/12 04:08:01;;;;;;;3.00;2.70;;;;;;;;;;5037191;28;20204;-72
2022/07/12 04:10:27;;;;;;;2.65;2.38;;;;;;;;;;5014830;28;20241;-72
2022/07/12 04:12:53;;;;;;;2.88;2.58;;;;;;;;;;5032381;28;20197;-72
2022/07/12 04:15:18;;;;;;;2.20;2.00;;;;;;;;;;5037442;28;20186;-72
2022/07/12 04:17:44;;;;;;;2.40;2.20;;;;;;;;;;5033158;28;20174;-72
2022/07/12 04:20:10;;;;;;;2.45;2.20;;;;;;;;;;5038585;28;20186;-72
2022/07/12 04:22:35;;;;;;;2.28;2.10;;;;;;;;;;5027455;28;20661;-72
2022/07/12 04:25:00;;;;;;;3.30;3.00;;;;;;;;;;5014028;28;20190;-72
2022/07/12 04:27:27;;;;;;;5.22;3.45;;;;;;;;;;5032342;28;20296;-72
2022/07/12 04:29:53;;;;;;;3.60;3.10;;;;;;;;;;5030722;28;20280;-71
2022/07/12 04:32:18;;;;;;;3.55;3.25;;;;;;;;;;5029915;28;20313;-72
2022/07/12 04:34:44;;;;;;;4.40;3.30;;;;;;;;;;5023297;28;20182;-73
2022/07/12 04:37:09;;;;;;;5.43;3.50;;;;;;;;;;5025831;28;20212;-72
2022/07/12 04:39:35;;;;;;;4.20;3.30;;;;;;;;;;5022658;28;20186;-72
2022/07/12 04:42:00;;;;;;;4.20;3.70;;;;;;;;;;5027324;28;20535;-72
2022/07/12 04:44:26;;;;;;;5.90;3.80;;;;;;;;;;5026546;28;20182;-71
2022/07/12 04:46:51;;;;;;;3.60;3.30;;;;;;;;;;5028551;28;20206;-72
2022/07/12 04:49:16;;;;;;;3.45;3.15;;;;;;;;;;5037341;28;20236;-71
2022/07/12 04:51:42;;;;;;;3.33;3.03;;;;;;;;;;5045028;28;20193;-71
2022/07/12 04:54:07;;;;;;;3.63;3.08;;;;;;;;;;5043663;28;20197;-71
2022/07/12 04:56:33;;;;;;;3.22;2.80;;;;;;;;;;5038855;28;20193;-73
2022/07/12 04:58:58;;;;;;;3.80;3.40;;;;;;;;;;5043111;28;20182;-72
2022/07/12 05:01:25;;;;;;;4.53;2.95;;;;;;;;;;5043169;28;20216;-71
2022/07/12 05:03:50;;;;;;;3.67;3.38;;;;;;;;;;5045611;28;20177;-71
2022/07/12 05:06:16;;;;;;;3.97;2.88;;;;;;;;;;5043647;28;20645;-72
2022/07/12 05:08:41;;;;;;;3.40;3.00;;;;;;;;;;5029618;28;20174;-73
2022/07/12 05:11:06;;;;;;;4.00;3.38;;;;;;;;;;5030884;28;20186;-71
2022/07/12 05:13:32;;;;;;;4.18;3.78;;;;;;;;;;5026898;28;20187;-72
2022/07/12 05:15:57;;;;;;;3.80;3.42;;;;;;;;;;5021078;28;20190;-71
2022/07/12 05:18:23;;;;;;;4.35;3.95;;;;;;;;;;5037383;28;20661;-70
2022/07/12 05:20:48;;;;;;;4.97;4.47;;;;;;;;;;5026195;28;20190;-71
2022/07/12 05:23:13;;;;;;;5.20;4.70;;;;;;;;;;5035605;28;20185;-71
2022/07/12 05:25:39;;;;;;;5.75;5.18;;;;;;;;;;5037589;28;20523;-71
2022/07/12 05:28:04;;;;;;;5.80;5.25;;;;;;;;;;5036727;28;20213;-71
2022/07/12 05:30:30;;;;;;;7.45;5.25;;;;;;;;;;5041717;28;20684;-71
2022/07/12 05:32:55;;;;;;;6.40;5.43;;;;;;;;;;5041617;28;20231;-71
2022/07/12 05:35:21;;;;;;;5.85;5.25;;;;;;;;;;5027919;28;20174;-71
2022/07/12 05:37:46;;;;;;;7.88;5.50;;;;;;;;;;5033814;28;20208;-70
2022/07/12 05:40:12;;;;;;;6.15;5.30;;;;;;;;;;5021049;28;20644;-70
2022/07/12 05:42:37;;;;;;;7.20;5.60;;;;;;;;;;5024045;28;20189;-70
2022/07/12 05:45:04;;;;;;;7.70;5.35;;;;;;;;;;5027458;28;20190;-71
2022/07/12 05:47:29;;;;;;;6.70;5.28;;;;;;;;;;5030061;28;20396;-70
2022/07/12 05:49:55;;;;;;;5.93;5.32;;;;;;;;;;5032643;28;20686;-72
2022/07/12 05:55:05;;;;;;;6.95;5.35;;;;;;;;;;5038426;28;20200;-71
2022/07/12 05:57:30;;;;;;;6.22;5.63;;;;;;;;;;5029077;28;20178;-71
2022/07/12 05:59:56;;;;;;;6.18;5.57;;;;;;;;;;5023614;28;20182;-71
2022/07/12 06:02:21;;;;;;;6.78;6.13;;;;;;;;;;5017357;28;20212;-71
2022/07/12 06:04:47;;;;;;;7.18;6.25;;;;;;;;;;5021060;28;20265;-71
2022/07/12 06:07:12;;;;;;;8.95;6.18;;;;;;;;;;5021737;28;20294;-71
2022/07/12 06:09:37;;;;;;;8.00;6.03;;;;;;;;;;5026070;28;20185;-72
2022/07/12 06:12:03;;;;;;;6.72;6.03;;;;;;;;;;5017745;28;20202;-70
2022/07/12 06:14:29;;;;;;;6.90;6.20;;;;;;;;;;5031183;28;20621;-71
2022/07/12 06:16:54;;;;;;;6.40;5.72;;;;;;;;;;5021011;28;20804;-71
2022/07/12 06:19:19;;;;;;;6.45;5.53;;;;;;;;;;5029822;28;20612;-70
2022/07/12 06:21:45;;;;;;;6.60;4.72;;;;;;;;;;5034345;28;20181;-69
2022/07/12 06:24:10;;;;;;;4.85;4.25;;;;;;;;;;5041103;28;20179;-69
2022/07/12 06:26:36;;;;;;;5.03;4.00;;;;;;;;;;5038476;28;20463;-70
2022/07/12 06:29:01;;;;;;;5.00;4.35;;;;;;;;;;5045795;28;20248;-70
2022/07/12 06:31:26;;;;;;;4.00;3.60;;;;;;;;;;5032176;28;20213;-70
2022/07/12 06:33:52;;;;;;;4.10;3.70;;;;;;;;;;5037410;28;20717;-71
2022/07/12 06:36:17;;;;;;;5.97;3.60;;;;;;;;;;5034710;28;21121;-71
2022/07/12 06:38:42;;;;;;;4.85;3.78;;;;;;;;;;5034423;28;20189;-72
2022/07/12 06:41:08;;;;;;;5.10;3.25;;;;;;;;;;5036198;28;20243;-67
2022/07/12 06:43:33;;;;;;;4.43;3.17;;;;;;;;;;5032736;28;20183;-69
2022/07/12 06:45:58;;;;;;;5.00;3.55;;;;;;;;;;5033274;28;20637;-69
2022/07/12 06:48:24;;;;;;;3.47;3.13;;;;;;;;;;5042118;28;20188;-69
2022/07/12 06:50:49;;;;;;;3.00;2.75;;;;;;;;;;5035025;28;20190;-70
2022/07/12 06:53:15;;;;;;;3.63;3.33;;;;;;;;;;5034698;28;20564;-69
2022/07/12 06:55:42;;;;;;;3.50;3.20;;;;;;;;;;5033287;28;20201;-70
2022/07/12 06:58:08;;;;;;;3.13;2.90;;;;;;;;;;5013042;28;20545;-68
2022/07/12 07:00:33;;;;;;;3.08;2.88;;;;;;;;;;5034392;28;20276;-67
2022/07/12 07:02:58;;;;;;;4.78;3.20;;;;;;;;;;5043494;28;20239;-69
2022/07/12 07:05:24;;;;;;;6.03;2.95;;;;;;;;;;5042668;28;20523;-67
2022/07/12 07:07:49;;;;;;;4.07;3.33;;;;;;;;;;5031600;28;20664;-68
2022/07/12 07:10:15;;;;;;;5.07;3.35;;;;;;;;;;5040729;28;20223;-68
2022/07/12 07:12:41;;;;;;;3.53;3.22;;;;;;;;;;5042906;28;20186;-69
2022/07/12 07:15:07;;;;;;;3.85;2.90;;;;;;;;;;5030190;28;20182;-68
2022/07/12 07:17:32;;;;;;;5.97;4.50;;;;;;;;;;4336288;28;10000690;-69
2022/07/12 07:19:57;;;;;;;3.80;3.40;;;;;;;;;;5041572;28;20189;-69
2022/07/12 07:22:23;;;;;;;3.85;3.55;;;;;;;;;;5032468;28;20247;-69
2022/07/12 07:24:48;;;;;;;3.42;3.13;;;;;;;;;;5031297;28;20181;-69
2022/07/12 07:27:14;;;;;;;3.58;3.25;;;;;;;;;;5030052;28;20213;-68
2022/07/12 07:32:23;;;;;;;3.80;3.50;;;;;;;;;;5028341;28;20242;-68
2022/07/12 07:34:48;;;;;;;3.10;2.90;;;;;;;;;;5027613;28;20662;-67
2022/07/12 07:37:14;;;;;;;6.05;3.65;;;;;;;;;;5035000;28;20192;-68
2022/07/12 07:39:40;;;;;;;5.72;4.38;;;;;;;;;;5028414;28;20251;-67
2022/07/12 07:42:05;;;;;;;5.63;4.05;;;;;;;;;;5023806;28;20197;-68
2022/07/12 07:44:30;;;;;;;5.70;4.15;;;;;;;;;;5038746;28;20195;-68
2022/07/12 07:46:56;;;;;;;4.07;3.78;;;;;;;;;;5031956;28;20212;-67
2022/07/12 07:49:22;;;;;;;4.05;3.65;;;;;;;;;;5040170;28;20193;-67
2022/07/12 07:51:47;;;;;;;4.63;4.03;;;;;;;;;;5038684;28;20173;-69
2022/07/12 07:54:12;;;;;;;3.80;3.38;;;;;;;;;;5041797;28;20187;-66
2022/07/12 07:56:37;;;;;;;4.28;3.83;;;;;;;;;;5033827;28;20173;-67
2022/07/12 07:59:03;;;;;;;4.35;3.00;;;;;;;;;;5039675;28;20192;-66
2022/07/12 08:01:48;;;;;;;3.08;2.88;;;;;;;;;;5037179;28;20185;-68
2022/07/12 08:04:14;;;;;;;5.07;3.30;;;;;;;;;;5040852;28;20312;-65
2022/07/12 08:06:41;;;;;;;4.75;4.22;;;;;;;;;;5037381;28;20193;-65
2022/07/12 08:09:07;;;;;;;4.35;3.95;;;;;;;;;;5032726;28;20742;-67
2022/07/12 08:11:32;;;;;;;4.15;3.53;;;;;;;;;;5030519;28;20311;-66
2022/07/12 08:13:58;;;;;;;4.60;3.30;;;;;;;;;;5024051;28;20174;-65
2022/07/12 08:16:23;;;;;;;3.60;3.30;;;;;;;;;;5020158;28;20205;-68
2022/07/12 08:18:49;;;;;;;4.10;3.80;;;;;;;;;;5027556;28;20674;-67
2022/07/12 08:21:14;;;;;;;4.07;3.78;;;;;;;;;;5033416;28;20201;-67
2022/07/12 08:23:39;;;;;;;4.10;3.78;;;;;;;;;;5029002;28;20197;-67
2022/07/12 08:26:05;;;;;;;4.57;3.63;;;;;;;;;;5025430;28;20178;-66
2022/07/12 08:28:30;;;;;;;3.45;3.15;;;;;;;;;;5036551;28;20205;-67
2022/07/12 08:30:55;;;;;;;6.82;3.55;;;;;;;;;;5034665;28;20190;-66
2022/07/12 08:33:21;;;;;;;2.13;2.03;;;;;;;;;;5023109;28;20243;-66
2022/07/12 08:35:46;;;;;;;5.43;2.53;;;;;;;;;;5025759;28;20830;-67
2022/07/12 08:38:12;;;;;;;2.50;2.30;;;;;;;;;;5021730;28;20215;-67
2022/07/12 08:40:37;;;;;;;3.47;3.17;;;;;;;;;;5018941;28;20181;-67
2022/07/12 08:43:02;;;;;;;3.90;2.95;;;;;;;;;;5023125;28;20178;-68
2022/07/12 08:45:28;;;;;;;3.90;3.50;;;;;;;;;;5038233;28;20181;-68
2022/07/12 08:47:53;;;;;;;3.90;2.67;;;;;;;;;;5022788;28;20214;-66
2022/07/12 08:50:20;;;;;;;2.20;2.10;;;;;;;;;;5030850;28;20653;-67
2022/07/12 08:52:53;;;;;;;2.38;2.17;;;;;;;;;;5028363;28;20301;-65
2022/07/12 08:55:44;;;;;;;2.20;1.77;;;;;;;;;;5037562;28;20177;-66
2022/07/12 08:58:16;;;;;;;3.08;2.83;;;;;;;;;;5038596;28;20247;-67
2022/07/12 09:00:41;;;;;;;2.58;2.38;;;;;;;;;;5036957;28;20182;-67
2022/07/12 09:03:07;;;;;;;2.00;1.90;;;;;;;;;;5025748;28;20751;-70
2022/07/12 09:05:34;;;;;;;1.80;1.70;;;;;;;;;;5030518;28;20269;-67
2022/07/12 09:08:06;;;;;;;3.88;2.80;;;;;;;;;;5023712;28;20224;-66
2022/07/12 09:10:32;;;;;;;3.00;2.70;;;;;;;;;;5042985;28;20548;-66
2022/07/12 09:12:58;;;;;;;2.80;2.20;;;;;;;;;;5021718;28;20614;-67
2022/07/12 09:15:24;;;;;;;1.88;1.77;;;;;;;;;;5042594;28;20247;-67
2022/07/12 09:18:17;;;;;;;1.40;1.30;;;;;;;;;;5031486;28;20202;-68
2022/07/12 09:20:50;;;;;;;6.68;2.08;;;;;;;;;;5037313;28;20189;-67
2022/07/12 09:23:15;;;;;;;2.20;1.85;;;;;;;;;;5034796;28;20178;-67
2022/07/12 09:25:45;;;;;;;3.22;2.05;;;;;;;;;;5022576;28;20200;-69
2022/07/12 09:28:11;;;;;;;2.00;1.80;;;;;;;;;;5034795;28;20213;-67
2022/07/12 09:30:50;;;;;;;1.70;1.60;;;;;;;;;;5038447;28;20256;-67
2022/07/12 09:36:07;;;;;;;1.50;1.40;;;;;;;;;;5033844;28;20239;-67
2022/07/12 09:38:33;;;;;;;1.27;1.17;;;;;;;;;;5026089;28;20194;-66
2022/07/12 09:40:59;;;;;;;2.25;2.05;;;;;;;;;;5030285;28;21180;-67
2022/07/12 09:43:26;;;;;;;1.45;1.35;;;;;;;;;;5034291;28;20185;-68
2022/07/12 09:45:52;;;;;;;2.22;1.40;;;;;;;;;;5036865;28;20540;-67
2022/07/12 09:48:19;;;;;;;2.47;1.52;;;;;;;;;;5020121;28;20206;-68
2022/07/12 09:50:48;;;;;;;1.23;1.13;;;;;;;;;;5028575;28;20194;-67
2022/07/12 09:53:25;;;;;;;1.15;1.10;;;;;;;;;;5029300;28;20234;-66
2022/07/12 09:55:52;;;;;;;1.90;1.70;;;;;;;;;;5017869;28;20205;-67
2022/07/12 09:58:26;;;;;;;2.75;1.80;;;;;;;;;;5033999;28;20649;-67
2022/07/12 10:00:53;;;;;;;11.45;2.35;;;;;;;;;;5026198;28;20186;-67
2022/07/12 10:03:23;;;;;;;1.33;1.23;;;;;;;;;;5031688;28;20645;-66
2022/07/12 10:05:51;;;;;;;1.65;1.25;;;;;;;;;;5023374;28;20186;-66
2022/07/12 10:08:18;;;;;;;2.38;1.50;;;;;;;;;;5027850;28;20205;-67
2022/07/12 10:10:44;;;;;;;0.85;0.85;;;;;;;;;;5024785;28;20697;-65
2022/07/12 10:13:10;;;;;;;1.35;0.88;;;;;;;;;;5035385;28;20277;-67
2022/07/12 10:15:36;;;;;;;3.88;1.25;;;;;;;;;;5034520;28;20208;-67
2022/07/12 10:18:03;;;;;;;1.15;1.05;;;;;;;;;;5026056;28;20201;-66
2022/07/12 10:20:29;;;;;;;1.67;1.10;;;;;;;;;;5028827;28;20218;-66
2022/07/12 10:22:56;;;;;;;1.00;0.93;;;;;;;;;;5027518;28;20485;-66
2022/07/12 10:25:32;;;;;;;1.30;1.20;;;;;;;;;;5023821;28;20201;-67
2022/07/12 10:27:58;;;;;;;0.85;0.85;;;;;;;;;;5030981;28;20205;-65
2022/07/12 10:30:24;;;;;;;1.00;0.90;;;;;;;;;;5035606;28;20469;-66
2022/07/12 10:32:53;;;;;;;2.03;0.90;;;;;;;;;;5019364;28;20198;-65
2022/07/12 10:35:30;;;;;;;1.77;0.90;;;;;;;;;;5027674;28;20182;-69
2022/07/12 10:38:15;;;;;;;3.38;1.20;;;;;;;;;;5027352;28;20209;-67
2022/07/12 10:40:45;;;;;;;0.70;0.70;;;;;;;;;;5034933;28;20210;-65
2022/07/12 10:43:10;;;;;;;0.82;0.77;;;;;;;;;;5032550;28;20186;-67
2022/07/12 10:45:43;;;;;;;2.95;0.80;;;;;;;;;;5040522;28;20546;-66
2022/07/12 10:48:22;;;;;;;2.28;1.08;;;;;;;;;;5023531;28;20206;-66
2022/07/12 10:51:00;;;;;;;1.88;0.60;;;;;;;;;;5025953;28;20665;-65
2022/07/12 10:53:40;;;;;;;1.35;1.15;;;;;;;;;;5017720;28;20281;-65
2022/07/12 10:56:20;;;;;;;2.60;0.70;;;;;;;;;;5032710;28;20598;-66
2022/07/12 10:58:57;;;;;;;0.75;0.70;;;;;;;;;;5027500;28;20348;-66
2022/07/12 11:01:32;;;;;;;0.82;0.63;;;;;;;;;;5028039;28;20186;-66
2022/07/12 11:04:08;;;;;;;0.60;0.50;;;;;;;;;;5018330;28;20182;-67
2022/07/12 11:06:39;;;;;;;1.65;0.90;;;;;;;;;;5038351;28;20239;-66
2022/07/12 11:09:10;;;;;;;1.40;0.68;;;;;;;;;;5030032;28;20608;-64
2022/07/12 11:11:43;;;;;;;2.30;0.60;;;;;;;;;;5030433;28;20178;-66
2022/07/12 11:14:08;;;;;;;2.72;0.40;;;;;;;;;;5040097;28;20178;-67
2022/07/12 11:16:34;;;;;;;0.70;0.55;;;;;;;;;;5025747;28;20662;-65
2022/07/12 11:19:00;;;;;;;0.70;0.70;;;;;;;;;;5027976;28;20186;-69
2022/07/12 11:21:25;;;;;;;1.40;0.50;;;;;;;;;;5029576;28;20174;-65
2022/07/12 11:23:51;;;;;;;0.45;0.40;;;;;;;;;;5024376;28;20225;-67
2022/07/12 11:26:17;;;;;;;0.60;0.60;;;;;;;;;;5023443;28;20301;-67
2022/07/12 11:28:44;;;;;;;0.40;0.40;;;;;;;;;;5029477;28;20327;-66
2022/07/12 11:31:17;;;;;;;0.30;0.30;;;;;;;;;;5034647;28;20228;-66
2022/07/12 11:33:45;;;;;;;0.52;0.47;;;;;;;;;;5030235;28;20395;-67
2022/07/12 11:36:12;;;;;;;0.30;0.30;;;;;;;;;;5033219;28;20594;-67
2022/07/12 11:38:40;;;;;;;0.30;0.25;;;;;;;;;;5022268;28;20493;-67
2022/07/12 11:41:07;;;;;;;0.40;0.40;;;;;;;;;;5032327;28;20187;-69
2022/07/12 11:43:34;;;;;;;2.08;0.40;;;;;;;;;;5028229;28;20224;-69
2022/07/12 11:46:00;;;;;;;0.55;0.43;;;;;;;;;;5023037;28;20689;-68
2022/07/12 11:48:26;;;;;;;0.70;0.50;;;;;;;;;;5034857;28;20206;-67
2022/07/12 11:50:53;;;;;;;0.50;0.50;;;;;;;;;;5035338;28;20215;-67
2022/07/12 11:53:24;;;;;;;0.50;0.50;;;;;;;;;;5040351;28;20271;-65
2022/07/12 11:55:52;;;;;;;1.75;0.60;;;;;;;;;;5043117;28;20187;-66
2022/07/12 11:58:18;;;;;;;1.83;0.70;;;;;;;;;;5033815;28;20671;-65
2022/07/12 12:00:45;;;;;;;1.10;0.60;;;;;;;;;;5021009;28;20235;-67
2022/07/12 12:03:12;;;;;;;1.13;0.50;;;;;;;;;;5026071;28;20232;-67
2022/07/12 12:05:37;;;;;;;1.85;0.60;;;;;;;;;;5019018;28;20182;-66
2022/07/12 12:08:04;;;;;;;1.85;0.40;;;;;;;;;;5020178;28;20220;-64
2022/07/12 12:10:30;;;;;;;0.50;0.50;;;;;;;;;;5022218;28;20182;-64
2022/07/12 12:12:57;;;;;;;0.50;0.50;;;;;;;;;;5036708;28;20189;-65
2022/07/12 12:15:27;;;;;;;0.85;0.50;;;;;;;;;;5030077;28;20177;-65
2022/07/12 12:17:54;;;;;;;0.75;0.50;;;;;;;;;;5028378;28;20184;-65
2022/07/12 12:20:25;;;;;;;1.63;0.50;;;;;;;;;;5026390;28;20181;-65
2022/07/12 12:22:56;;;;;;;0.98;0.50;;;;;;;;;;5024794;28;20190;-66
2022/07/12 12:25:22;;;;;;;0.40;0.40;;;;;;;;;;5029462;28;20181;-66
2022/07/12 12:27:53;;;;;;;0.40;0.40;;;;;;;;;;5023374;28;20217;-66
2022/07/12 12:30:18;;;;;;;2.85;0.60;;;;;;;;;;5021950;28;20317;-66
2022/07/12 12:32:56;;;;;;;0.85;0.85;;;;;;;;;;5027489;28;20300;-66
2022/07/12 12:35:30;;;;;;;0.68;0.50;;;;;;;;;;5038144;28;20173;-67
2022/07/12 12:37:57;;;;;;;0.55;0.55;;;;;;;;;;5040104;28;20188;-67
2022/07/12 12:40:26;;;;;;;1.55;0.40;;;;;;;;;;5038915;28;20222;-66
2022/07/12 12:42:53;;;;;;;0.60;0.50;;;;;;;;;;5042480;28;20585;-68
2022/07/12 12:45:25;;;;;;;0.30;0.30;;;;;;;;;;5041277;28;20176;-68
2022/07/12 12:47:57;;;;;;;2.20;0.50;;;;;;;;;;5039848;28;20711;-67
2022/07/12 12:50:45;;;;;;;1.52;0.52;;;;;;;;;;5040627;28;20177;-68
2022/07/12 12:53:15;;;;;;;1.27;0.70;;;;;;;;;;5033400;28;20555;-68
2022/07/12 12:55:43;;;;;;;1.08;0.50;;;;;;;;;;5024049;28;20198;-68
2022/07/12 12:58:08;;;;;;;0.77;0.50;;;;;;;;;;5028694;28;20178;-67
2022/07/12 13:00:38;;;;;;;0.50;0.50;;;;;;;;;;5038255;28;20721;-66
2022/07/12 13:03:06;;;;;;;0.60;0.50;;;;;;;;;;5029553;28;20206;-66
2022/07/12 13:05:32;;;;;;;2.78;0.60;;;;;;;;;;5028924;28;20215;-66
2022/07/12 13:07:57;;;;;;;2.70;0.40;;;;;;;;;;5033284;28;20592;-69
2022/07/12 13:10:24;;;;;;;0.75;0.60;;;;;;;;;;5046592;28;20185;-68
2022/07/12 13:12:50;;;;;;;1.02;0.65;;;;;;;;;;5044270;28;20178;-65
2022/07/12 13:15:16;;;;;;;0.85;0.63;;;;;;;;;;5040522;28;20209;-69
2022/07/12 13:17:42;;;;;;;0.60;0.60;;;;;;;;;;5040530;28;20626;-65
2022/07/12 13:20:08;;;;;;;3.47;0.60;;;;;;;;;;5028119;28;20228;-67
2022/07/12 13:22:34;;;;;;;1.00;0.70;;;;;;;;;;5029769;28;20619;-66
2022/07/12 13:24:59;;;;;;;0.82;0.52;;;;;;;;;;5030735;28;20223;-67
2022/07/12 13:27:26;;;;;;;0.60;0.60;;;;;;;;;;5042934;28;20208;-66
2022/07/12 13:29:52;;;;;;;1.33;0.80;;;;;;;;;;5042724;28;20233;-68
2022/07/12 13:32:17;;;;;;;2.40;0.50;;;;;;;;;;5047564;28;20214;-69
2022/07/12 13:34:43;;;;;;;0.50;0.50;;;;;;;;;;5040719;28;20182;-69
2022/07/12 13:37:08;;;;;;;0.50;0.50;;;;;;;;;;5034785;28;20199;-68
2022/07/12 13:42:17;;;;;;;0.88;0.55;;;;;;;;;;5040467;28;20224;-71
2022/07/12 13:44:43;;;;;;;1.55;0.50;;;;;;;;;;5027425;28;20664;-69
2022/07/12 13:47:08;;;;;;;0.90;0.60;;;;;;;;;;5037423;28;20496;-68
2022/07/12 13:49:34;;;;;;;1.33;0.80;;;;;;;;;;5019061;28;20188;-67
2022/07/12 13:52:01;;;;;;;1.95;0.60;;;;;;;;;;5038120;28;20206;-69
2022/07/12 13:54:27;;;;;;;0.70;0.60;;;;;;;;;;5044133;28;20216;-69
2022/07/12 13:56:52;;;;;;;3.25;0.52;;;;;;;;;;5041843;28;20209;-69
2022/07/12 13:59:18;;;;;;;2.88;0.60;;;;;;;;;;5028725;28;20178;-68
2022/07/12 14:01:43;;;;;;;0.38;0.38;;;;;;;;;;5035369;28;20181;-68
2022/07/12 14:04:09;;;;;;;0.77;0.40;;;;;;;;;;5032881;28;20174;-68
2022/07/12 14:06:34;;;;;;;0.70;0.68;;;;;;;;;;5043286;28;20668;-69
2022/07/12 14:09:00;;;;;;;0.45;0.45;;;;;;;;;;5034965;28;20251;-69
2022/07/12 14:11:25;;;;;;;2.08;0.55;;;;;;;;;;5039898;28;20189;-68
2022/07/12 14:13:51;;;;;;;1.65;0.60;;;;;;;;;;5034731;28;20211;-68
2022/07/12 14:16:18;;;;;;;4.70;0.70;;;;;;;;;;5034645;28;20494;-68
2022/07/12 14:18:43;;;;;;;1.85;0.80;;;;;;;;;;5027189;28;20300;-68
2022/07/12 14:21:09;;;;;;;2.08;0.80;;;;;;;;;;5037586;28;20189;-67
2022/07/12 14:23:34;;;;;;;0.60;0.60;;;;;;;;;;5043461;28;20193;-68
2022/07/12 14:25:59;;;;;;;1.10;1.00;;;;;;;;;;5033199;28;20181;-67
2022/07/12 14:28:25;;;;;;;1.67;0.68;;;;;;;;;;5035849;28;20210;-67
2022/07/12 14:30:50;;;;;;;1.15;0.60;;;;;;;;;;5030508;28;20276;-67
2022/07/12 14:33:16;;;;;;;1.77;0.80;;;;;;;;;;5034189;28;20186;-69
2022/07/12 14:35:41;;;;;;;4.15;0.80;;;;;;;;;;5039626;28;20192;-68
2022/07/12 14:38:06;;;;;;;0.60;0.60;;;;;;;;;;5031840;28;20286;-66
2022/07/12 14:40:33;;;;;;;0.85;0.75;;;;;;;;;;5030557;28;20654;-68
2022/07/12 14:42:58;;;;;;;2.95;0.70;;;;;;;;;;5034130;28;20184;-68
2022/07/12 14:45:24;;;;;;;1.25;0.88;;;;;;;;;;5032179;28;20188;-68
2022/07/12 14:47:49;;;;;;;2.88;0.75;;;;;;;;;;5033218;28;20621;-69
2022/07/12 14:50:14;;;;;;;0.90;0.65;;;;;;;;;;5034787;28;20263;-68
2022/07/12 14:52:40;;;;;;;2.78;0.70;;;;;;;;;;5043962;28;20184;-67
2022/07/12 14:55:06;;;;;;;3.30;0.77;;;;;;;;;;5038422;28;20646;-64
2022/07/12 14:57:31;;;;;;;1.77;0.70;;;;;;;;;;5044316;28;20215;-66